sensor_id;sensor_type;location;lat;lon;timestamp;temperature;humidity
8043;DHT22;4064;48.132;11.366;2022-07-23T00:00:16;22.80;92.70
8043;DHT22;4064;48.132;11.366;2022-07-23T00:02:41;22.70;93.30
8043;DHT22;4064;48.132;11.366;2022-07-23T00:05:07;22.60;93.60
8043;DHT22;4064;48.132;11.366;2022-07-23T00:07:33;22.60;93.30
8043;DHT22;4064;48.132;11.366;2022-07-23T00:09:59;22.60;93.50
8043;DHT22;4064;48.132;11.366;2022-07-23T00:12:25;22.60;93.10
8043;DHT22;4064;48.132;11.366;2022-07-23T00:14:51;22.60;93.40
8043;DHT22;4064;48.132;11.366;2022-07-23T00:17:17;22.60;93.80
8043;DHT22;4064;48.132;11.366;2022-07-23T00:19:42;22.60;93.80
8043;DHT22;4064;48.132;11.366;2022-07-23T00:22:08;22.60;93.50
8043;DHT22;4064;48.132;11.366;2022-07-23T00:24:34;22.60;93.10
8043;DHT22;4064;48.132;11.366;2022-07-23T00:26:59;22.60;92.90
8043;DHT22;4064;48.132;11.366;2022-07-23T00:29:25;22.60;93.10
8043;DHT22;4064;48.132;11.366;2022-07-23T00:31:51;22.70;92.80
8043;DHT22;4064;48.132;11.366;2022-07-23T00:34:16;22.70;92.60
8043;DHT22;4064;48.132;11.366;2022-07-23T00:36:42;22.70;93.10
8043;DHT22;4064;48.132;11.366;2022-07-23T00:39:07;22.70;92.60
8043;DHT22;4064;48.132;11.366;2022-07-23T00:41:33;22.70;92.60
8043;DHT22;4064;48.132;11.366;2022-07-23T00:44:22;22.70;92.70
8043;DHT22;4064;48.132;11.366;2022-07-23T00:46:53;22.70;93.30
8043;DHT22;4064;48.132;11.366;2022-07-23T00:49:20;22.70;92.90
8043;DHT22;4064;48.132;11.366;2022-07-23T00:51:48;22.70;92.90
8043;DHT22;4064;48.132;11.366;2022-07-23T00:54:14;22.70;92.70
8043;DHT22;4064;48.132;11.366;2022-07-23T00:56:42;22.70;93.20
8043;DHT22;4064;48.132;11.366;2022-07-23T00:59:08;22.70;93.20
8043;DHT22;4064;48.132;11.366;2022-07-23T01:01:34;22.70;93.20
8043;DHT22;4064;48.132;11.366;2022-07-23T01:04:00;22.70;93.30
8043;DHT22;4064;48.132;11.366;2022-07-23T01:06:25;22.70;92.60
8043;DHT22;4064;48.132;11.366;2022-07-23T01:08:52;22.70;91.90
8043;DHT22;4064;48.132;11.366;2022-07-23T01:11:19;22.70;91.20
8043;DHT22;4064;48.132;11.366;2022-07-23T01:13:45;22.70;89.80
8043;DHT22;4064;48.132;11.366;2022-07-23T01:16:11;22.70;88.20
8043;DHT22;4064;48.132;11.366;2022-07-23T01:18:37;22.60;89.30
8043;DHT22;4064;48.132;11.366;2022-07-23T01:21:02;22.20;87.90
8043;DHT22;4064;48.132;11.366;2022-07-23T01:23:28;21.60;91.10
8043;DHT22;4064;48.132;11.366;2022-07-23T01:25:54;21.10;93.20
8043;DHT22;4064;48.132;11.366;2022-07-23T01:28:20;20.60;94.90
8043;DHT22;4064;48.132;11.366;2022-07-23T01:30:47;20.10;95.40
8043;DHT22;4064;48.132;11.366;2022-07-23T01:33:13;19.70;96.20
8043;DHT22;4064;48.132;11.366;2022-07-23T01:35:38;19.50;98.40
8043;DHT22;4064;48.132;11.366;2022-07-23T01:38:04;19.20;99.90
8043;DHT22;4064;48.132;11.366;2022-07-23T01:40:30;18.80;99.90
8043;DHT22;4064;48.132;11.366;2022-07-23T01:42:55;18.60;99.90
8043;DHT22;4064;48.132;11.366;2022-07-23T01:45:21;18.40;99.90
8043;DHT22;4064;48.132;11.366;2022-07-23T01:47:48;18.30;99.90
8043;DHT22;4064;48.132;11.366;2022-07-23T01:50:13;18.20;99.90
8043;DHT22;4064;48.132;11.366;2022-07-23T01:52:39;18.20;99.90
8043;DHT22;4064;48.132;11.366;2022-07-23T01:55:05;18.20;99.90
8043;DHT22;4064;48.132;11.366;2022-07-23T01:57:31;18.20;99.90
8043;DHT22;4064;48.132;11.366;2022-07-23T01:59:57;18.20;99.90
8043;DHT22;4064;48.132;11.366;2022-07-23T02:02:23;18.20;99.90
8043;DHT22;4064;48.132;11.366;2022-07-23T02:04:49;18.20;99.90
8043;DHT22;4064;48.132;11.366;2022-07-23T02:07:14;18.10;99.90
8043;DHT22;4064;48.132;11.366;2022-07-23T02:09:40;18.00;99.90
8043;DHT22;4064;48.132;11.366;2022-07-23T02:12:06;18.10;99.90
8043;DHT22;4064;48.132;11.366;2022-07-23T02:14:32;18.10;99.90
8043;DHT22;4064;48.132;11.366;2022-07-23T02:16:57;18.10;99.90
8043;DHT22;4064;48.132;11.366;2022-07-23T02:19:23;18.10;99.90
8043;DHT22;4064;48.132;11.366;2022-07-23T02:21:49;18.00;99.90
8043;DHT22;4064;48.132;11.366;2022-07-23T02:24:14;17.90;99.90
8043;DHT22;4064;48.132;11.366;2022-07-23T02:26:40;17.70;99.90
8043;DHT22;4064;48.132;11.366;2022-07-23T02:29:06;17.60;99.90
8043;DHT22;4064;48.132;11.366;2022-07-23T02:31:32;17.60;99.90
8043;DHT22;4064;48.132;11.366;2022-07-23T02:33:58;17.50;99.90
8043;DHT22;4064;48.132;11.366;2022-07-23T02:36:24;17.40;99.90
8043;DHT22;4064;48.132;11.366;2022-07-23T02:38:49;17.40;99.90
8043;DHT22;4064;48.132;11.366;2022-07-23T02:41:15;17.40;99.90
8043;DHT22;4064;48.132;11.366;2022-07-23T02:43:41;17.50;99.90
8043;DHT22;4064;48.132;11.366;2022-07-23T02:46:06;17.60;99.90
8043;DHT22;4064;48.132;11.366;2022-07-23T02:48:33;17.70;99.90
8043;DHT22;4064;48.132;11.366;2022-07-23T02:50:58;17.80;99.90
8043;DHT22;4064;48.132;11.366;2022-07-23T02:53:24;17.80;99.90
8043;DHT22;4064;48.132;11.366;2022-07-23T02:55:50;17.80;99.90
8043;DHT22;4064;48.132;11.366;2022-07-23T02:58:15;17.70;99.90
8043;DHT22;4064;48.132;11.366;2022-07-23T03:00:41;17.60;99.90
8043;DHT22;4064;48.132;11.366;2022-07-23T03:03:06;17.60;99.90
8043;DHT22;4064;48.132;11.366;2022-07-23T03:05:33;17.60;99.90
8043;DHT22;4064;48.132;11.366;2022-07-23T03:07:59;17.60;99.90
8043;DHT22;4064;48.132;11.366;2022-07-23T03:10:24;17.70;99.90
8043;DHT22;4064;48.132;11.366;2022-07-23T03:12:50;17.70;99.90
8043;DHT22;4064;48.132;11.366;2022-07-23T03:15:16;17.70;99.90
8043;DHT22;4064;48.132;11.366;2022-07-23T03:17:42;17.80;99.90
8043;DHT22;4064;48.132;11.366;2022-07-23T03:20:08;17.80;99.90
8043;DHT22;4064;48.132;11.366;2022-07-23T03:22:34;17.70;99.90
8043;DHT22;4064;48.132;11.366;2022-07-23T03:24:59;17.60;99.90
8043;DHT22;4064;48.132;11.366;2022-07-23T03:27:27;17.60;99.90
8043;DHT22;4064;48.132;11.366;2022-07-23T03:29:54;17.50;99.90
8043;DHT22;4064;48.132;11.366;2022-07-23T03:32:20;17.40;99.90
8043;DHT22;4064;48.132;11.366;2022-07-23T03:34:46;17.30;99.90
8043;DHT22;4064;48.132;11.366;2022-07-23T03:37:12;17.30;99.90
8043;DHT22;4064;48.132;11.366;2022-07-23T03:39:38;17.40;99.90
8043;DHT22;4064;48.132;11.366;2022-07-23T03:42:04;17.40;99.90
8043;DHT22;4064;48.132;11.366;2022-07-23T03:44:30;17.50;99.90
8043;DHT22;4064;48.132;11.366;2022-07-23T03:46:56;17.50;99.90
8043;DHT22;4064;48.132;11.366;2022-07-23T03:49:21;17.50;99.90
8043;DHT22;4064;48.132;11.366;2022-07-23T03:51:47;17.40;99.90
8043;DHT22;4064;48.132;11.366;2022-07-23T03:54:13;17.30;99.90
8043;DHT22;4064;48.132;11.366;2022-07-23T03:56:38;17.40;99.90
8043;DHT22;4064;48.132;11.366;2022-07-23T03:59:04;17.30;99.90
8043;DHT22;4064;48.132;11.366;2022-07-23T04:01:30;17.30;99.90
8043;DHT22;4064;48.132;11.366;2022-07-23T04:03:56;17.30;99.90
8043;DHT22;4064;48.132;11.366;2022-07-23T04:06:21;17.40;99.90
8043;DHT22;4064;48.132;11.366;2022-07-23T04:08:47;17.40;99.90
8043;DHT22;4064;48.132;11.366;2022-07-23T04:11:13;17.50;99.90
8043;DHT22;4064;48.132;11.366;2022-07-23T04:13:39;17.60;99.90
8043;DHT22;4064;48.132;11.366;2022-07-23T04:16:05;17.50;99.90
8043;DHT22;4064;48.132;11.366;2022-07-23T04:18:32;17.50;99.90
8043;DHT22;4064;48.132;11.366;2022-07-23T04:20:57;17.60;99.90
8043;DHT22;4064;48.132;11.366;2022-07-23T04:23:23;17.60;99.90
8043;DHT22;4064;48.132;11.366;2022-07-23T04:25:49;17.60;99.90
8043;DHT22;4064;48.132;11.366;2022-07-23T04:28:14;17.60;99.90
8043;DHT22;4064;48.132;11.366;2022-07-23T04:30:40;17.60;99.90
8043;DHT22;4064;48.132;11.366;2022-07-23T04:33:06;17.70;99.90
8043;DHT22;4064;48.132;11.366;2022-07-23T04:35:33;17.60;99.90
8043;DHT22;4064;48.132;11.366;2022-07-23T04:37:58;17.70;99.90
8043;DHT22;4064;48.132;11.366;2022-07-23T04:40:25;17.70;99.90
8043;DHT22;4064;48.132;11.366;2022-07-23T04:42:50;17.70;99.90
8043;DHT22;4064;48.132;11.366;2022-07-23T04:45:16;17.70;99.90
8043;DHT22;4064;48.132;11.366;2022-07-23T04:47:42;17.60;99.90
8043;DHT22;4064;48.132;11.366;2022-07-23T04:50:08;17.70;99.90
8043;DHT22;4064;48.132;11.366;2022-07-23T04:52:33;17.70;99.90
8043;DHT22;4064;48.132;11.366;2022-07-23T04:54:59;17.70;99.90
8043;DHT22;4064;48.132;11.366;2022-07-23T04:57:25;17.70;99.90
8043;DHT22;4064;48.132;11.366;2022-07-23T04:59:50;17.70;99.90
8043;DHT22;4064;48.132;11.366;2022-07-23T05:02:16;17.70;99.90
8043;DHT22;4064;48.132;11.366;2022-07-23T05:04:42;17.70;99.90
8043;DHT22;4064;48.132;11.366;2022-07-23T05:07:08;17.70;99.90
8043;DHT22;4064;48.132;11.366;2022-07-23T05:09:33;17.70;99.90
8043;DHT22;4064;48.132;11.366;2022-07-23T05:12:00;17.70;99.90
8043;DHT22;4064;48.132;11.366;2022-07-23T05:14:26;17.80;99.90
8043;DHT22;4064;48.132;11.366;2022-07-23T05:16:52;17.80;99.90
8043;DHT22;4064;48.132;11.366;2022-07-23T05:19:18;17.80;99.90
8043;DHT22;4064;48.132;11.366;2022-07-23T05:21:43;17.80;99.90
8043;DHT22;4064;48.132;11.366;2022-07-23T05:24:09;17.70;99.90
8043;DHT22;4064;48.132;11.366;2022-07-23T05:26:35;17.70;99.90
8043;DHT22;4064;48.132;11.366;2022-07-23T05:29:00;17.80;99.90
8043;DHT22;4064;48.132;11.366;2022-07-23T05:31:26;17.80;99.90
8043;DHT22;4064;48.132;11.366;2022-07-23T05:33:52;17.80;99.90
8043;DHT22;4064;48.132;11.366;2022-07-23T05:36:18;17.90;99.90
8043;DHT22;4064;48.132;11.366;2022-07-23T05:38:43;18.00;99.90
8043;DHT22;4064;48.132;11.366;2022-07-23T05:41:09;18.00;99.90
8043;DHT22;4064;48.132;11.366;2022-07-23T05:43:35;18.10;99.90
8043;DHT22;4064;48.132;11.366;2022-07-23T05:46:01;18.10;99.90
8043;DHT22;4064;48.132;11.366;2022-07-23T05:48:26;18.20;99.90
8043;DHT22;4064;48.132;11.366;2022-07-23T05:50:52;18.20;99.90
8043;DHT22;4064;48.132;11.366;2022-07-23T05:53:18;18.20;99.90
8043;DHT22;4064;48.132;11.366;2022-07-23T05:55:44;18.30;99.90
8043;DHT22;4064;48.132;11.366;2022-07-23T05:58:09;18.30;99.90
8043;DHT22;4064;48.132;11.366;2022-07-23T06:00:35;18.30;99.90
8043;DHT22;4064;48.132;11.366;2022-07-23T06:03:01;18.30;99.90
8043;DHT22;4064;48.132;11.366;2022-07-23T06:05:27;18.20;99.90
8043;DHT22;4064;48.132;11.366;2022-07-23T06:07:52;18.20;99.90
8043;DHT22;4064;48.132;11.366;2022-07-23T06:10:19;18.20;99.90
8043;DHT22;4064;48.132;11.366;2022-07-23T06:12:46;18.10;99.90
8043;DHT22;4064;48.132;11.366;2022-07-23T06:15:11;18.00;99.90
8043;DHT22;4064;48.132;11.366;2022-07-23T06:17:38;18.00;99.90
8043;DHT22;4064;48.132;11.366;2022-07-23T06:20:08;18.00;99.90
8043;DHT22;4064;48.132;11.366;2022-07-23T06:22:34;18.00;99.90
8043;DHT22;4064;48.132;11.366;2022-07-23T06:25:00;18.00;99.90
8043;DHT22;4064;48.132;11.366;2022-07-23T06:27:26;18.20;99.90
8043;DHT22;4064;48.132;11.366;2022-07-23T06:29:52;18.20;99.90
8043;DHT22;4064;48.132;11.366;2022-07-23T06:32:18;18.30;99.90
8043;DHT22;4064;48.132;11.366;2022-07-23T06:34:44;18.30;99.90
8043;DHT22;4064;48.132;11.366;2022-07-23T06:37:09;18.40;99.90
8043;DHT22;4064;48.132;11.366;2022-07-23T06:39:35;18.50;99.90
8043;DHT22;4064;48.132;11.366;2022-07-23T06:42:01;18.50;99.90
8043;DHT22;4064;48.132;11.366;2022-07-23T06:44:27;18.60;99.90
8043;DHT22;4064;48.132;11.366;2022-07-23T06:46:52;18.60;99.90
8043;DHT22;4064;48.132;11.366;2022-07-23T06:49:19;18.60;99.90
8043;DHT22;4064;48.132;11.366;2022-07-23T06:51:44;18.70;99.90
8043;DHT22;4064;48.132;11.366;2022-07-23T06:54:10;18.70;99.90
8043;DHT22;4064;48.132;11.366;2022-07-23T06:56:36;18.80;99.90
8043;DHT22;4064;48.132;11.366;2022-07-23T06:59:02;18.80;99.90
8043;DHT22;4064;48.132;11.366;2022-07-23T07:01:28;18.80;99.90
8043;DHT22;4064;48.132;11.366;2022-07-23T07:03:54;18.80;99.90
8043;DHT22;4064;48.132;11.366;2022-07-23T07:06:20;18.80;99.90
8043;DHT22;4064;48.132;11.366;2022-07-23T07:08:45;18.80;99.90
8043;DHT22;4064;48.132;11.366;2022-07-23T07:11:11;18.90;99.90
8043;DHT22;4064;48.132;11.366;2022-07-23T07:13:37;18.90;99.90
8043;DHT22;4064;48.132;11.366;2022-07-23T07:16:03;18.80;99.90
8043;DHT22;4064;48.132;11.366;2022-07-23T07:18:29;18.90;99.90
8043;DHT22;4064;48.132;11.366;2022-07-23T07:20:56;18.90;99.90
8043;DHT22;4064;48.132;11.366;2022-07-23T07:23:22;19.00;99.90
8043;DHT22;4064;48.132;11.366;2022-07-23T07:25:48;19.10;99.90
8043;DHT22;4064;48.132;11.366;2022-07-23T07:28:14;19.10;99.90
8043;DHT22;4064;48.132;11.366;2022-07-23T07:30:40;19.20;99.90
8043;DHT22;4064;48.132;11.366;2022-07-23T07:33:06;19.20;99.90
8043;DHT22;4064;48.132;11.366;2022-07-23T07:35:32;19.20;99.90
8043;DHT22;4064;48.132;11.366;2022-07-23T07:37:58;19.20;99.90
8043;DHT22;4064;48.132;11.366;2022-07-23T07:40:24;19.20;99.90
8043;DHT22;4064;48.132;11.366;2022-07-23T07:42:53;19.30;99.90
8043;DHT22;4064;48.132;11.366;2022-07-23T07:45:23;19.30;99.90
8043;DHT22;4064;48.132;11.366;2022-07-23T07:47:51;19.40;99.90
8043;DHT22;4064;48.132;11.366;2022-07-23T07:50:18;19.40;99.90
8043;DHT22;4064;48.132;11.366;2022-07-23T07:52:43;19.40;99.90
8043;DHT22;4064;48.132;11.366;2022-07-23T07:55:10;19.40;99.90
8043;DHT22;4064;48.132;11.366;2022-07-23T07:57:36;19.40;99.90
8043;DHT22;4064;48.132;11.366;2022-07-23T08:00:04;19.40;99.90
8043;DHT22;4064;48.132;11.366;2022-07-23T08:02:52;19.40;99.90
8043;DHT22;4064;48.132;11.366;2022-07-23T08:05:23;19.40;99.90
8043;DHT22;4064;48.132;11.366;2022-07-23T08:07:49;19.50;99.90
8043;DHT22;4064;48.132;11.366;2022-07-23T08:10:15;19.50;99.90
8043;DHT22;4064;48.132;11.366;2022-07-23T08:12:46;19.50;99.90
8043;DHT22;4064;48.132;11.366;2022-07-23T08:15:14;19.50;99.90
8043;DHT22;4064;48.132;11.366;2022-07-23T08:17:41;19.60;99.90
8043;DHT22;4064;48.132;11.366;2022-07-23T08:20:08;19.60;99.90
8043;DHT22;4064;48.132;11.366;2022-07-23T08:22:44;19.70;99.90
8043;DHT22;4064;48.132;11.366;2022-07-23T08:25:10;19.70;99.90
8043;DHT22;4064;48.132;11.366;2022-07-23T08:27:36;19.80;99.90
8043;DHT22;4064;48.132;11.366;2022-07-23T08:30:01;20.10;99.90
8043;DHT22;4064;48.132;11.366;2022-07-23T08:32:27;20.30;99.90
8043;DHT22;4064;48.132;11.366;2022-07-23T08:34:53;20.40;99.90
8043;DHT22;4064;48.132;11.366;2022-07-23T08:37:18;20.50;99.90
8043;DHT22;4064;48.132;11.366;2022-07-23T08:39:44;20.70;99.90
8043;DHT22;4064;48.132;11.366;2022-07-23T08:42:10;21.00;99.90
8043;DHT22;4064;48.132;11.366;2022-07-23T08:44:38;21.10;99.90
8043;DHT22;4064;48.132;11.366;2022-07-23T08:47:06;21.20;99.90
8043;DHT22;4064;48.132;11.366;2022-07-23T08:49:32;21.30;99.90
8043;DHT22;4064;48.132;11.366;2022-07-23T08:51:58;21.40;99.90
8043;DHT22;4064;48.132;11.366;2022-07-23T08:54:24;21.50;99.90
8043;DHT22;4064;48.132;11.366;2022-07-23T08:56:49;21.60;99.90
8043;DHT22;4064;48.132;11.366;2022-07-23T08:59:15;21.80;99.90
8043;DHT22;4064;48.132;11.366;2022-07-23T09:01:41;22.00;99.90
8043;DHT22;4064;48.132;11.366;2022-07-23T09:04:07;22.10;99.90
8043;DHT22;4064;48.132;11.366;2022-07-23T09:06:32;22.20;99.90
8043;DHT22;4064;48.132;11.366;2022-07-23T09:09:19;22.30;99.90
8043;DHT22;4064;48.132;11.366;2022-07-23T09:11:46;22.30;99.90
8043;DHT22;4064;48.132;11.366;2022-07-23T09:14:13;22.40;99.90
8043;DHT22;4064;48.132;11.366;2022-07-23T09:16:38;22.40;99.90
8043;DHT22;4064;48.132;11.366;2022-07-23T09:19:06;22.50;99.90
8043;DHT22;4064;48.132;11.366;2022-07-23T09:21:37;22.60;99.90
8043;DHT22;4064;48.132;11.366;2022-07-23T09:24:12;22.80;99.90
8043;DHT22;4064;48.132;11.366;2022-07-23T09:26:45;23.00;99.90
8043;DHT22;4064;48.132;11.366;2022-07-23T09:29:16;23.50;99.90
8043;DHT22;4064;48.132;11.366;2022-07-23T09:31:55;23.90;99.90
8043;DHT22;4064;48.132;11.366;2022-07-23T09:36:55;25.10;99.90
8043;DHT22;4064;48.132;11.366;2022-07-23T09:39:32;25.40;99.90
8043;DHT22;4064;48.132;11.366;2022-07-23T09:42:23;25.60;99.90
8043;DHT22;4064;48.132;11.366;2022-07-23T09:44:50;25.70;99.90
8043;DHT22;4064;48.132;11.366;2022-07-23T09:47:17;25.60;99.20
8043;DHT22;4064;48.132;11.366;2022-07-23T09:52:49;25.50;98.90
8043;DHT22;4064;48.132;11.366;2022-07-23T09:55:17;25.40;98.70
8043;DHT22;4064;48.132;11.366;2022-07-23T09:57:43;25.30;98.70
8043;DHT22;4064;48.132;11.366;2022-07-23T10:00:15;25.10;98.00
8043;DHT22;4064;48.132;11.366;2022-07-23T10:02:42;25.20;98.80
8043;DHT22;4064;48.132;11.366;2022-07-23T10:05:09;25.40;99.60
8043;DHT22;4064;48.132;11.366;2022-07-23T10:07:37;25.60;98.10
8043;DHT22;4064;48.132;11.366;2022-07-23T10:10:05;26.40;96.60
8043;DHT22;4064;48.132;11.366;2022-07-23T10:12:31;27.10;94.60
8043;DHT22;4064;48.132;11.366;2022-07-23T10:15:20;27.40;93.50
8043;DHT22;4064;48.132;11.366;2022-07-23T10:17:46;27.40;92.30
8043;DHT22;4064;48.132;11.366;2022-07-23T10:20:13;27.70;92.40
8043;DHT22;4064;48.132;11.366;2022-07-23T10:22:44;28.30;91.00
8043;DHT22;4064;48.132;11.366;2022-07-23T10:25:36;28.40;89.40
8043;DHT22;4064;48.132;11.366;2022-07-23T10:33:54;28.90;79.60
8043;DHT22;4064;48.132;11.366;2022-07-23T10:36:23;28.70;78.60
8043;DHT22;4064;48.132;11.366;2022-07-23T10:38:58;28.50;80.00
8043;DHT22;4064;48.132;11.366;2022-07-23T10:41:33;28.30;77.60
8043;DHT22;4064;48.132;11.366;2022-07-23T10:44:15;28.40;80.00
8043;DHT22;4064;48.132;11.366;2022-07-23T10:47:10;28.40;79.50
8043;DHT22;4064;48.132;11.366;2022-07-23T10:49:36;28.20;76.50
8043;DHT22;4064;48.132;11.366;2022-07-23T10:54:48;28.60;77.30
8043;DHT22;4064;48.132;11.366;2022-07-23T10:57:19;28.60;77.30
8043;DHT22;4064;48.132;11.366;2022-07-23T11:02:29;28.10;76.00
8043;DHT22;4064;48.132;11.366;2022-07-23T11:05:06;27.80;75.00
8043;DHT22;4064;48.132;11.366;2022-07-23T11:07:33;27.50;76.40
8043;DHT22;4064;48.132;11.366;2022-07-23T11:09:59;27.30;75.70
8043;DHT22;4064;48.132;11.366;2022-07-23T11:15:14;26.90;74.20
8043;DHT22;4064;48.132;11.366;2022-07-23T11:22:39;26.30;78.10
8043;DHT22;4064;48.132;11.366;2022-07-23T11:25:06;26.10;79.30
8043;DHT22;4064;48.132;11.366;2022-07-23T11:27:41;25.90;78.30
8043;DHT22;4064;48.132;11.366;2022-07-23T11:30:08;25.80;79.40
8043;DHT22;4064;48.132;11.366;2022-07-23T11:32:36;25.70;80.30
8043;DHT22;4064;48.132;11.366;2022-07-23T11:35:19;25.80;81.10
8043;DHT22;4064;48.132;11.366;2022-07-23T11:37:46;25.70;81.40
8043;DHT22;4064;48.132;11.366;2022-07-23T11:40:16;25.60;81.80
8043;DHT22;4064;48.132;11.366;2022-07-23T11:43:11;25.60;83.10
8043;DHT22;4064;48.132;11.366;2022-07-23T11:45:38;25.50;83.90
8043;DHT22;4064;48.132;11.366;2022-07-23T11:48:06;25.40;83.70
8043;DHT22;4064;48.132;11.366;2022-07-23T11:50:33;25.30;84.70
8043;DHT22;4064;48.132;11.366;2022-07-23T11:52:59;25.20;83.20
8043;DHT22;4064;48.132;11.366;2022-07-23T11:55:25;25.10;83.60
8043;DHT22;4064;48.132;11.366;2022-07-23T11:57:52;25.10;84.90
8043;DHT22;4064;48.132;11.366;2022-07-23T12:00:23;24.90;83.80
8043;DHT22;4064;48.132;11.366;2022-07-23T12:02:55;24.90;83.90
8043;DHT22;4064;48.132;11.366;2022-07-23T12:05:24;24.80;84.70
8043;DHT22;4064;48.132;11.366;2022-07-23T12:07:51;24.80;85.80
8043;DHT22;4064;48.132;11.366;2022-07-23T12:10:22;24.90;88.00
8043;DHT22;4064;48.132;11.366;2022-07-23T12:12:50;24.90;87.90
8043;DHT22;4064;48.132;11.366;2022-07-23T12:15:18;24.90;87.70
8043;DHT22;4064;48.132;11.366;2022-07-23T12:17:46;24.80;86.90
8043;DHT22;4064;48.132;11.366;2022-07-23T12:20:14;24.70;87.30
8043;DHT22;4064;48.132;11.366;2022-07-23T12:22:45;24.60;87.80
8043;DHT22;4064;48.132;11.366;2022-07-23T12:25:17;24.50;87.10
8043;DHT22;4064;48.132;11.366;2022-07-23T12:27:44;24.40;87.70
8043;DHT22;4064;48.132;11.366;2022-07-23T12:30:16;24.30;87.00
8043;DHT22;4064;48.132;11.366;2022-07-23T12:32:44;24.40;88.40
8043;DHT22;4064;48.132;11.366;2022-07-23T12:35:10;24.40;89.00
8043;DHT22;4064;48.132;11.366;2022-07-23T12:37:39;24.30;88.20
8043;DHT22;4064;48.132;11.366;2022-07-23T12:40:44;24.30;89.10
8043;DHT22;4064;48.132;11.366;2022-07-23T12:43:18;24.50;90.20
8043;DHT22;4064;48.132;11.366;2022-07-23T12:45:53;24.70;89.30
8043;DHT22;4064;48.132;11.366;2022-07-23T12:51:02;24.80;87.40
8043;DHT22;4064;48.132;11.366;2022-07-23T12:53:36;24.90;89.10
8043;DHT22;4064;48.132;11.366;2022-07-23T12:58:50;24.90;87.00
8043;DHT22;4064;48.132;11.366;2022-07-23T13:01:23;24.90;88.60
8043;DHT22;4064;48.132;11.366;2022-07-23T13:06:33;24.80;87.50
8043;DHT22;4064;48.132;11.366;2022-07-23T13:09:00;24.80;88.90
8043;DHT22;4064;48.132;11.366;2022-07-23T13:11:26;24.80;88.80
8043;DHT22;4064;48.132;11.366;2022-07-23T13:13:52;24.70;88.50
8043;DHT22;4064;48.132;11.366;2022-07-23T13:16:19;24.60;88.30
8043;DHT22;4064;48.132;11.366;2022-07-23T13:18:45;24.50;89.10
8043;DHT22;4064;48.132;11.366;2022-07-23T13:21:11;24.40;89.50
8043;DHT22;4064;48.132;11.366;2022-07-23T13:23:37;24.40;89.30
8043;DHT22;4064;48.132;11.366;2022-07-23T13:26:03;24.40;89.30
8043;DHT22;4064;48.132;11.366;2022-07-23T13:28:28;24.60;90.10
8043;DHT22;4064;48.132;11.366;2022-07-23T13:30:54;24.70;89.90
8043;DHT22;4064;48.132;11.366;2022-07-23T13:33:23;24.70;88.50
8043;DHT22;4064;48.132;11.366;2022-07-23T13:35:49;25.00;88.70
8043;DHT22;4064;48.132;11.366;2022-07-23T13:38:15;25.40;88.20
8043;DHT22;4064;48.132;11.366;2022-07-23T13:40:44;25.30;86.00
8043;DHT22;4064;48.132;11.366;2022-07-23T13:43:12;25.20;87.00
8043;DHT22;4064;48.132;11.366;2022-07-23T13:45:38;25.00;86.90
8043;DHT22;4064;48.132;11.366;2022-07-23T13:48:05;24.90;87.90
8043;DHT22;4064;48.132;11.366;2022-07-23T13:50:30;24.80;87.20
8043;DHT22;4064;48.132;11.366;2022-07-23T13:52:56;24.70;88.20
8043;DHT22;4064;48.132;11.366;2022-07-23T13:55:22;24.60;88.20
8043;DHT22;4064;48.132;11.366;2022-07-23T13:57:48;24.50;88.40
8043;DHT22;4064;48.132;11.366;2022-07-23T14:00:14;24.50;88.20
8043;DHT22;4064;48.132;11.366;2022-07-23T14:02:40;24.40;89.40
8043;DHT22;4064;48.132;11.366;2022-07-23T14:05:08;24.30;89.50
8043;DHT22;4064;48.132;11.366;2022-07-23T14:07:35;24.30;90.00
8043;DHT22;4064;48.132;11.366;2022-07-23T14:10:03;24.30;89.40
8043;DHT22;4064;48.132;11.366;2022-07-23T14:12:30;24.40;89.80
8043;DHT22;4064;48.132;11.366;2022-07-23T14:14:56;24.40;89.80
8043;DHT22;4064;48.132;11.366;2022-07-23T14:17:22;24.40;89.90
8043;DHT22;4064;48.132;11.366;2022-07-23T14:19:48;24.40;90.00
8043;DHT22;4064;48.132;11.366;2022-07-23T14:22:14;24.50;89.80
8043;DHT22;4064;48.132;11.366;2022-07-23T14:24:40;24.60;90.10
8043;DHT22;4064;48.132;11.366;2022-07-23T14:27:06;24.80;89.50
8043;DHT22;4064;48.132;11.366;2022-07-23T14:29:32;24.90;89.10
8043;DHT22;4064;48.132;11.366;2022-07-23T14:31:58;24.80;87.80
8043;DHT22;4064;48.132;11.366;2022-07-23T14:34:24;24.70;88.30
8043;DHT22;4064;48.132;11.366;2022-07-23T14:36:51;24.70;88.20
8043;DHT22;4064;48.132;11.366;2022-07-23T14:39:17;24.70;88.30
8043;DHT22;4064;48.132;11.366;2022-07-23T14:41:43;24.70;88.80
8043;DHT22;4064;48.132;11.366;2022-07-23T14:44:09;24.80;88.70
8043;DHT22;4064;48.132;11.366;2022-07-23T14:46:34;24.80;89.00
8043;DHT22;4064;48.132;11.366;2022-07-23T14:49:00;24.80;89.10
8043;DHT22;4064;48.132;11.366;2022-07-23T14:51:26;24.70;89.00
8043;DHT22;4064;48.132;11.366;2022-07-23T14:53:52;24.60;89.10
8043;DHT22;4064;48.132;11.366;2022-07-23T14:56:18;24.70;90.00
8043;DHT22;4064;48.132;11.366;2022-07-23T14:58:44;24.70;89.40
8043;DHT22;4064;48.132;11.366;2022-07-23T15:01:10;24.60;89.00
8043;DHT22;4064;48.132;11.366;2022-07-23T15:03:35;24.60;89.30
8043;DHT22;4064;48.132;11.366;2022-07-23T15:06:01;24.60;90.00
8043;DHT22;4064;48.132;11.366;2022-07-23T15:08:27;24.60;89.30
8043;DHT22;4064;48.132;11.366;2022-07-23T15:10:52;24.60;89.20
8043;DHT22;4064;48.132;11.366;2022-07-23T15:13:18;24.70;88.40
8043;DHT22;4064;48.132;11.366;2022-07-23T15:15:44;24.90;88.90
8043;DHT22;4064;48.132;11.366;2022-07-23T15:18:10;24.90;89.00
8043;DHT22;4064;48.132;11.366;2022-07-23T15:20:38;24.90;88.50
8043;DHT22;4064;48.132;11.366;2022-07-23T15:23:08;24.90;88.70
8043;DHT22;4064;48.132;11.366;2022-07-23T15:25:34;25.00;89.10
8043;DHT22;4064;48.132;11.366;2022-07-23T15:27:59;25.20;89.50
8043;DHT22;4064;48.132;11.366;2022-07-23T15:30:26;25.20;89.40
8043;DHT22;4064;48.132;11.366;2022-07-23T15:32:52;25.30;87.80
8043;DHT22;4064;48.132;11.366;2022-07-23T15:35:19;25.30;87.30
8043;DHT22;4064;48.132;11.366;2022-07-23T15:37:44;25.40;87.80
8043;DHT22;4064;48.132;11.366;2022-07-23T15:40:11;25.40;87.30
8043;DHT22;4064;48.132;11.366;2022-07-23T15:42:37;25.40;86.60
8043;DHT22;4064;48.132;11.366;2022-07-23T15:45:04;25.30;86.60
8043;DHT22;4064;48.132;11.366;2022-07-23T15:47:30;25.30;87.10
8043;DHT22;4064;48.132;11.366;2022-07-23T15:49:56;25.40;86.90
8043;DHT22;4064;48.132;11.366;2022-07-23T15:52:22;25.40;87.30
8043;DHT22;4064;48.132;11.366;2022-07-23T15:54:48;25.40;87.00
8043;DHT22;4064;48.132;11.366;2022-07-23T15:57:14;25.40;87.40
8043;DHT22;4064;48.132;11.366;2022-07-23T15:59:40;25.40;87.80
8043;DHT22;4064;48.132;11.366;2022-07-23T16:02:05;25.40;87.40
8043;DHT22;4064;48.132;11.366;2022-07-23T16:04:31;25.40;87.20
8043;DHT22;4064;48.132;11.366;2022-07-23T16:06:58;25.30;88.10
8043;DHT22;4064;48.132;11.366;2022-07-23T16:09:24;25.20;89.50
8043;DHT22;4064;48.132;11.366;2022-07-23T16:11:51;25.10;89.50
8043;DHT22;4064;48.132;11.366;2022-07-23T16:14:18;25.00;90.20
8043;DHT22;4064;48.132;11.366;2022-07-23T16:16:44;25.00;90.30